• Join FlightAware (Why Join?)
  • Login
  • US Flag 
11:13PM EDT


 

Airport Tracker/Info


-or-


 

Live Flight TrackerFlight Track Log ✈ EJA396 ✈ 03-Oct-2013 ✈ KPBI - KGSP

Flight Track Log - Related Links

Times and Time Zones

All times are in EDT time to prevent confusion due to time zone crossing. See the EJA396 flight status page for this flight to view local times or setup timezone preferences in your user account.

Time Position Orientation Groundspeed Altitude Reporting Facility
EDT Latitude Longitude Course Direction KTS MPH feet Rate Location/Type
12:44AM 28.4986 -81.1211 340° North 143 165 41,000  Level Jacksonville Center
12:45AM 28.6161 -81.1686 340° North 306 352 41,000  Level Jacksonville Center
12:46AM 28.7375 -81.1900 351° North 381 438 41,000  Level Jacksonville Center
12:47AM 28.8608 -81.2094 352° North 422 486 41,000  Level Jacksonville Center
12:48AM 28.9864 -81.2286 352° North 446 513 41,000  Level Jacksonville Center
12:49AM 29.1078 -81.2456 353° North 446 513 41,000  Level Jacksonville Center
12:50AM 29.2292 -81.2672 351° North 446 513 41,000  Level Jacksonville Center
12:51AM 29.3525 -81.2844 353° North 446 513 41,000  Level Jacksonville Center
12:52AM 29.4864 -81.3061 352° North 446 513 41,000  Level Jacksonville Center
12:53AM 29.6078 -81.3281 351° North 440 506 41,000  Level Jacksonville Center
12:54AM 29.7331 -81.3450 353° North 445 512 41,000  Level Jacksonville Center
12:55AM 29.8586 -81.3647 352° North 450 518 41,000  Level Jacksonville Center
12:56AM 29.9819 -81.3842 352° North 445 512 41,000  Level Jacksonville Center
12:57AM 30.1075 -81.4039 352° North 450 518 41,000  Level Jacksonville Center
12:58AM 30.2331 -81.4236 352° North 450 518 41,000  Level Jacksonville Center
12:59AM 30.3586 -81.4433 352° North 450 518 41,000  Level Jacksonville Center
01:00AM 30.4819 -81.4656 351° North 450 518 41,000  Level Jacksonville Center
01:01AM 30.6075 -81.4853 352° North 450 518 41,000  Level Jacksonville Center
01:02AM 30.7328 -81.5053 352° North 445 512 41,000  Level Jacksonville Center
01:03AM 30.8606 -81.5278 351° North 445 512 41,000  Level Jacksonville Center
01:04AM 30.9839 -81.5478 352° North 445 512 41,000  Level Jacksonville Center
01:05AM 31.1114 -81.5700 352° North 445 512 41,000  Level Jacksonville Center
01:06AM 31.2369 -81.5903 352° North 453 521 41,000  Level Jacksonville Center
01:07AM 31.3561 -81.6106 352° North 446 513 41,000  Level Jacksonville Center
01:08AM 31.4839 -81.6306 352° North 452 520 41,000  Level Jacksonville Center
01:09AM 31.6114 -81.6533 351° North 457 526 41,000  Level Jacksonville Center
01:10AM 31.7242 -81.6714 352° North 462 532 41,000  Level Jacksonville Center
01:12AM 31.9500 -81.7086 352° North 491 565 41,000  Level Atlanta Center
01:13AM 32.0778 -81.7322 351° North 467 537 41,000  Level Atlanta Center
01:14AM 32.2011 -81.7511 353° North 460 529 41,000  Level Atlanta Center
01:15AM 32.3164 -81.7703 352° North 460 529 41,000  Level Atlanta Center
01:16AM 32.4419 -81.7892 353° North 455 524 41,000  Level Atlanta Center
01:17AM 32.5675 -81.8133 351° North 455 524 41,000 -360 Level Atlanta Center
01:18AM 32.7078 -81.8344 353° North 455 524 40,300 -1,200 Descending Atlanta Center
01:19AM 32.8356 -81.8583 351° North 460 529 38,600 -1,860 Descending Atlanta Center
01:20AM 32.9614 -81.8825 351° North 460 529 36,600 -2,040 Descending Atlanta Center
01:21AM 33.0911 -81.9017 353° North 465 535 34,600 -2,100 Descending Atlanta Center
01:22AM 33.2167 -81.9233 352° North 465 535 32,500 -2,280 Descending Atlanta Center
01:23AM 33.3486 -81.9475 351° North 465 535 30,100 -2,400 Descending Atlanta Center
01:24AM 33.4783 -81.9692 352° North 465 535 27,800 -2,340 Descending Atlanta Center
01:25AM 33.6061 -81.9911 352° North 465 535 25,500 -2,340 Descending Atlanta Center
01:26AM 33.7294 -82.0131 352° North 460 529 23,200 -2,220 Descending Atlanta Center
01:27AM 33.8508 -82.0328 352° North 454 522 21,100 -2,100 Descending Atlanta Center
01:28AM 33.9536 -82.0528 351° North 430 495 19,000 -2,040 Descending Atlanta Center
01:29AM 34.0622 -82.0728 351° North 410 472 17,100 -2,040 Descending Atlanta Center
01:30AM 34.1733 -82.0903 353° North 405 466 15,000 -2,040 Descending Atlanta Center
01:31AM 34.2781 -82.1106 351° North 392 451 13,100 -1,860 Descending Atlanta Center
01:32AM 34.3764 -82.1286 351° North 374 430 11,300 -1,860 Descending Atlanta Center
01:33AM 34.4683 -82.1442 352° North 351 404 9,400 -1,740 Descending Atlanta Center
01:34AM 34.5478 -82.1575 352° North 314 361 7,900 -1,500 Descending Atlanta Center
01:36AM 34.8027 -82.2000 North  Level FlightAware Approximate
01:43AM 34.8833 -82.2167 338° Northwest  Level FlightAware Approximate
01:44AM 34.8957 -82.2189 338° Northwest  Level Estimated
01:45AM 34.8957 -82.2189 338° Northwest  Level Estimated
01:46AM 34.8957 -82.2189 338° Northwest  Level Estimated
01:47AM 34.8957 -82.2189 338° Northwest  Level Estimated
01:48AM 34.8957 -82.2189 338° Northwest  Level Estimated
01:49AM 34.8957 -82.2189 338° Northwest  Level Estimated
01:50AM 34.8957 -82.2189 338° Northwest  Level Estimated
01:51AM 34.8957 -82.2189 338° Northwest  Level Estimated
01:52AM 34.8957 -82.2189 338° Northwest  Level Estimated